This is the latest recevied weather packets stored in our database for station/object WA4IKQ. If no packets are shown the sender has not sent any weather packets the latest 10 day(s).
| Time | Temp. | Humidity | Pressure | Rain* | Wind** | Luminosity | Snow |
|---|---|---|---|---|---|---|---|
| 1787501469 | 31.67° C | 63% | 1016.6 hPa | 0 mm | 2.24 m/s, 139° | - | - |
| 1787501248 | 31.67° C | 64% | 1016.7 hPa | 0 mm | 1.79 m/s, 142° | - | - |
| 1787501170 | 31.67° C | 64% | 1016.7 hPa | 0 mm | 1.79 m/s, 142° | - | - |
| 1787500937 | 31.67° C | 65% | 1016.8 hPa | 0 mm | 2.24 m/s, 187° | - | - |
| 1787500871 | 31.67° C | 65% | 1016.8 hPa | 0 mm | 2.24 m/s, 187° | - | - |
| 1787500639 | 31.11° C | 65% | 1016.8 hPa | 0 mm | 3.58 m/s, 190° | - | - |
| 1787500570 | 31.11° C | 65% | 1016.8 hPa | 0 mm | 3.58 m/s, 190° | - | - |
| 1787500351 | 31.11° C | 66% | 1016.8 hPa | 0 mm | 3.13 m/s, 139° | - | - |
| 1787500267 | 31.11° C | 66% | 1016.8 hPa | 0 mm | 3.13 m/s, 139° | - | - |
| 1787500054 | 30.56° C | 69% | 1016.7 hPa | 0 mm | 4.92 m/s, 183° | - | - |
| 1787499969 | 30.56° C | 69% | 1016.7 hPa | 0 mm | 4.92 m/s, 183° | - | - |
| 1787499780 | 30.56° C | 71% | 1016.7 hPa | 0 mm | 3.13 m/s, 145° | - | - |
| 1787499671 | 30.56° C | 71% | 1016.7 hPa | 0 mm | 3.13 m/s, 145° | - | - |
| 1787499490 | 30.56° C | 70% | 1016.7 hPa | 0 mm | 0.45 m/s, 113° | - | - |
| 1787499372 | 30.56° C | 70% | 1016.7 hPa | 0 mm | 0.45 m/s, 113° | - | - |
| 1787499151 | 30.56° C | 70% | 1016.7 hPa | 0 mm | 1.79 m/s, 142° | - | - |
| 1787499069 | 30.56° C | 70% | 1016.7 hPa | 0 mm | 1.79 m/s, 142° | - | - |
| 1787498886 | 30.56° C | 70% | 1016.7 hPa | 0 mm | 1.34 m/s, 135° | - | - |
| 1787498773 | 30.56° C | 70% | 1016.7 hPa | 0 mm | 1.34 m/s, 135° | - | - |
| 1787498571 | 30.56° C | 70% | 1016.8 hPa | 0 mm | 3.13 m/s, 132° | - | - |
| 1787498476 | 30.56° C | 70% | 1016.8 hPa | 0 mm | 3.13 m/s, 132° | - | - |
| 1787498253 | 30.56° C | 71% | 1016.8 hPa | 0 mm | 1.34 m/s, 152° | - | - |
| 1787498175 | 30.56° C | 71% | 1016.8 hPa | 0 mm | 1.34 m/s, 152° | - | - |
| 1787497962 | 30.56° C | 72% | 1016.7 hPa | 0 mm | 1.34 m/s, 127° | - | - |
| 1787497869 | 30.56° C | 72% | 1016.7 hPa | 0 mm | 1.34 m/s, 127° | - | - |
* Rain latest hour (hover to see other rain measurements)
** Current wind speed in m/s (hover to see current wind gust speed)